createdAt,value
2017-05-05T00:00:15.013Z,67.99
2017-05-05T00:00:55.529Z,67.7
2017-05-05T00:01:36.033Z,67.61
2017-05-05T00:02:16.578Z,67.99
2017-05-05T00:02:57.055Z,67.99
2017-05-05T00:03:37.554Z,68.08
2017-05-05T00:04:18.029Z,68.08
2017-05-05T00:04:58.544Z,68.37
2017-05-05T00:05:39.038Z,68.08
2017-05-05T00:06:19.540Z,67.99
2017-05-05T00:07:00.015Z,67.99
2017-05-05T00:07:40.543Z,67.99
2017-05-05T00:08:21.012Z,67.8
2017-05-05T00:09:01.489Z,67.51
2017-05-05T00:09:41.991Z,67.61
2017-05-05T00:10:22.551Z,68.08
2017-05-05T00:11:03.076Z,67.99
2017-05-05T00:11:43.526Z,67.89
2017-05-05T00:12:24.038Z,67.99
2017-05-05T00:13:04.732Z,67.8
2017-05-05T00:13:45.229Z,67.61
2017-05-05T00:14:25.714Z,67.41
2017-05-05T00:15:06.190Z,67.51
2017-05-05T00:15:46.669Z,67.7
2017-05-05T00:16:27.187Z,67.41
2017-05-05T00:17:07.628Z,67.7
2017-05-05T00:17:48.189Z,67.41
2017-05-05T00:18:28.626Z,67.13
2017-05-05T00:19:09.149Z,67.61
2017-05-05T00:19:49.633Z,67.32
2017-05-05T00:20:30.106Z,67.61
2017-05-05T00:21:10.610Z,67.51
2017-05-05T00:21:51.103Z,67.32
2017-05-05T00:22:31.599Z,67.41
2017-05-05T00:23:12.074Z,67.51
2017-05-05T00:23:52.575Z,67.51
2017-05-05T00:24:33.033Z,67.22
2017-05-05T00:25:13.552Z,67.22
2017-05-05T00:25:54.049Z,67.22
2017-05-05T00:26:34.530Z,66.94
2017-05-05T00:27:15.038Z,66.56
2017-05-05T00:27:55.511Z,66.66
2017-05-05T00:28:36.011Z,66.56
2017-05-05T00:29:16.506Z,66.08
2017-05-05T00:29:57.026Z,66.08
2017-05-05T00:30:37.509Z,66.18
2017-05-05T00:31:18.016Z,66.08
2017-05-05T00:31:58.551Z,66.08
2017-05-05T00:32:39.010Z,65.8
2017-05-05T00:33:19.525Z,65.89
2017-05-05T00:34:00.011Z,65.51
2017-05-05T00:34:40.484Z,65.61
2017-05-05T00:35:20.954Z,65.89
2017-05-05T00:36:01.464Z,65.8
2017-05-05T00:36:41.929Z,65.61
2017-05-05T00:37:22.411Z,65.55
2017-05-05T00:38:02.910Z,65.03
2017-05-05T00:38:43.374Z,65.13
2017-05-05T00:39:23.873Z,65.03
2017-05-05T00:40:04.379Z,65.32
2017-05-05T00:40:44.878Z,65.13
2017-05-05T00:41:25.338Z,65.23
2017-05-05T00:42:05.821Z,65.03
2017-05-05T00:42:46.309Z,65.23
2017-05-05T00:43:26.776Z,65.23
2017-05-05T00:44:07.240Z,65.23
2017-05-05T00:44:47.738Z,65.8
2017-05-05T00:45:28.247Z,65.03
2017-05-05T00:46:08.728Z,65.7
2017-05-05T00:46:49.210Z,65.89
2017-05-05T00:47:29.752Z,65.8
2017-05-05T00:48:10.220Z,65.89
2017-05-05T00:48:50.746Z,65.8
2017-05-05T00:49:31.194Z,65.8
2017-05-05T00:50:11.705Z,66.18
2017-05-05T00:50:52.185Z,66.18
2017-05-05T00:51:32.678Z,66.08
2017-05-05T00:52:13.149Z,65.89
2017-05-05T00:52:53.611Z,65.99
2017-05-05T00:53:34.094Z,66.18
2017-05-05T00:54:14.616Z,66.27
2017-05-05T00:54:55.092Z,66.56
2017-05-05T00:55:35.583Z,66.66
2017-05-05T00:56:16.087Z,66.08
2017-05-05T00:56:56.583Z,66.66
2017-05-05T00:57:37.085Z,66.27
2017-05-05T00:58:17.580Z,66.85
2017-05-05T00:58:58.054Z,66.66
2017-05-05T00:59:38.548Z,66.85
2017-05-05T01:00:18.996Z,66.75
2017-05-05T01:00:59.505Z,66.75
2017-05-05T01:01:40.014Z,66.66
2017-05-05T01:02:20.517Z,66.66
2017-05-05T01:03:00.995Z,66.66
2017-05-05T01:03:41.501Z,66.66
2017-05-05T01:04:21.990Z,66.75
2017-05-05T01:05:02.499Z,66.94
2017-05-05T01:05:42.963Z,66.94
2017-05-05T01:06:23.517Z,66.66
2017-05-05T01:07:03.998Z,67.22
2017-05-05T01:07:44.517Z,66.85
2017-05-05T01:08:25.027Z,66.94
2017-05-05T01:09:05.473Z,66.85
2017-05-05T01:09:45.934Z,66.85
2017-05-05T01:10:26.422Z,66.66
2017-05-05T01:11:06.880Z,66.37
2017-05-05T01:11:47.348Z,65.89
2017-05-05T01:12:27.872Z,66.18
2017-05-05T01:13:08.319Z,66.46
2017-05-05T01:13:48.814Z,66.37
2017-05-05T01:14:29.297Z,66.27
2017-05-05T01:15:09.818Z,66.37
2017-05-05T01:15:50.287Z,66.37
2017-05-05T01:16:30.807Z,65.89
2017-05-05T01:17:11.241Z,65.99
2017-05-05T01:17:51.746Z,65.99
2017-05-05T01:18:32.238Z,66.08
2017-05-05T01:19:12.731Z,65.89
2017-05-05T01:19:53.248Z,65.61
2017-05-05T01:20:33.760Z,65.23
2017-05-05T01:21:14.241Z,64.94
2017-05-05T01:21:54.723Z,65.32
2017-05-05T01:22:35.191Z,65.42
2017-05-05T01:23:15.701Z,65.32
2017-05-05T01:23:56.149Z,65.42
2017-05-05T01:24:36.613Z,65.23
2017-05-05T01:25:17.088Z,65.51
2017-05-05T01:25:57.579Z,65.32
2017-05-05T01:26:38.085Z,65.51
2017-05-05T01:27:18.615Z,65.61
2017-05-05T01:27:59.089Z,64.75
2017-05-05T01:28:39.609Z,64.94
2017-05-05T01:29:20.073Z,64.75
2017-05-05T01:30:00.559Z,64.94
2017-05-05T01:30:41.086Z,65.23
2017-05-05T01:31:21.628Z,65.32
2017-05-05T01:32:02.076Z,65.03
2017-05-05T01:32:42.608Z,65.03
2017-05-05T01:33:23.093Z,65.51
2017-05-05T01:34:03.546Z,65.03
2017-05-05T01:34:44.041Z,65.51
2017-05-05T01:35:24.538Z,65.03
2017-05-05T01:36:05.036Z,65.51
2017-05-05T01:36:45.519Z,66.08
2017-05-05T01:37:26.030Z,66.27
2017-05-05T01:38:06.527Z,66.94
2017-05-05T01:38:47.016Z,66.94
2017-05-05T01:39:27.504Z,66.75
2017-05-05T01:40:07.999Z,67.32
2017-05-05T01:40:48.502Z,67.7
2017-05-05T01:41:28.998Z,68.75
2017-05-05T01:42:09.500Z,67.99
2017-05-05T01:42:49.977Z,68.18
2017-05-05T01:43:30.448Z,68.08
2017-05-05T01:44:10.929Z,68.37
2017-05-05T01:44:51.444Z,68.08
2017-05-05T01:45:31.878Z,68.37
2017-05-05T01:46:12.397Z,69.13
2017-05-05T01:46:52.867Z,68.94
2017-05-05T01:47:33.374Z,68.65
2017-05-05T01:48:13.817Z,68.65
2017-05-05T01:48:54.291Z,68.46
2017-05-05T01:49:34.760Z,68.75
2017-05-05T01:50:15.306Z,69.04
2017-05-05T01:50:55.750Z,69.04
2017-05-05T01:51:36.291Z,69.13
2017-05-05T01:52:16.735Z,69.04
2017-05-05T01:52:57.252Z,69.51
2017-05-05T01:53:37.748Z,69.04
2017-05-05T01:54:18.265Z,68.84
2017-05-05T01:54:58.738Z,69.23
2017-05-05T01:55:39.259Z,69.42
2017-05-05T01:56:19.703Z,69.79
2017-05-05T01:57:00.229Z,69.42
2017-05-05T01:57:40.740Z,69.32
2017-05-05T01:58:21.220Z,69.32
2017-05-05T01:59:01.698Z,69.23
2017-05-05T01:59:42.201Z,69.6
2017-05-05T02:00:22.704Z,69.32
2017-05-05T02:01:03.183Z,69.23
2017-05-05T02:01:43.673Z,69.23
2017-05-05T02:02:24.185Z,69.51
2017-05-05T02:03:04.831Z,69.42
2017-05-05T02:03:45.308Z,69.51
2017-05-05T02:04:25.803Z,69.6
2017-05-05T02:05:06.284Z,69.7
2017-05-05T02:05:46.792Z,68.75
2017-05-05T02:09:46.863Z,69.13
2017-05-05T02:10:28.349Z,69.23
2017-05-05T02:11:08.798Z,69.23
2017-05-05T02:11:49.289Z,69.23
2017-05-05T02:12:29.768Z,69.23
2017-05-05T02:13:10.251Z,69.04
2017-05-05T02:13:50.757Z,68.94
2017-05-05T02:14:31.225Z,69.13
2017-05-05T02:15:11.733Z,68.84
2017-05-05T02:15:52.219Z,69.04
2017-05-05T02:16:32.711Z,69.04
2017-05-05T02:17:13.201Z,69.04
2017-05-05T02:17:53.694Z,69.23
2017-05-05T02:18:34.187Z,68.84
2017-05-05T02:19:14.672Z,68.75
2017-05-05T02:19:55.129Z,68.75
2017-05-05T02:20:35.589Z,68.65
2017-05-05T02:21:16.076Z,68.94
2017-05-05T02:21:56.534Z,68.43
2017-05-05T02:22:37.036Z,68.37
2017-05-05T02:23:17.531Z,69.04
2017-05-05T02:23:57.997Z,68.46
2017-05-05T02:24:38.535Z,68.43
2017-05-05T02:25:19.047Z,68.56
2017-05-05T02:25:59.499Z,68.37
2017-05-05T02:26:40.005Z,68.15
2017-05-05T02:27:20.492Z,68.08
2017-05-05T02:28:01.041Z,68.46
2017-05-05T02:28:41.486Z,67.89
2017-05-05T02:29:21.989Z,68.08
2017-05-05T02:30:02.496Z,67.99
2017-05-05T02:30:42.979Z,67.51
2017-05-05T02:31:23.436Z,67.99
2017-05-05T02:32:03.934Z,67.7
2017-05-05T02:32:44.424Z,67.76
2017-05-05T02:33:24.932Z,67.51
2017-05-05T02:34:05.422Z,67.1
2017-05-05T02:34:45.904Z,67.38
2017-05-05T02:35:26.403Z,66.94
2017-05-05T02:36:06.883Z,66.75
2017-05-05T02:36:47.383Z,67.1
2017-05-05T02:37:27.886Z,66.81
2017-05-05T02:38:08.373Z,66.94
2017-05-05T02:38:48.856Z,67.32
2017-05-05T02:40:48.863Z,66.72
2017-05-05T02:41:30.457Z,66.81
2017-05-05T02:42:10.965Z,66.91
2017-05-05T02:42:51.450Z,66.62
2017-05-05T02:43:31.902Z,66.72
2017-05-05T02:44:12.363Z,66.62
2017-05-05T02:44:52.839Z,67
2017-05-05T02:45:33.315Z,66.91
2017-05-05T02:46:13.783Z,65.95
2017-05-05T02:46:54.297Z,66.72
2017-05-05T02:47:34.785Z,66.43
2017-05-05T02:48:15.303Z,66.24
2017-05-05T02:48:55.753Z,65.86
2017-05-05T02:49:36.246Z,65.77
2017-05-05T02:50:16.709Z,65.95
2017-05-05T02:50:57.221Z,66.14
2017-05-05T02:51:37.702Z,65.86
2017-05-05T02:52:18.222Z,65.48
2017-05-05T02:52:58.685Z,65.1
2017-05-05T02:53:39.173Z,65.19
2017-05-05T02:54:19.641Z,65.1
2017-05-05T02:55:00.170Z,65.19
2017-05-05T02:55:40.644Z,64.53
2017-05-05T02:56:21.121Z,65.29
2017-05-05T02:57:01.612Z,64.81
2017-05-05T02:57:42.127Z,64.62
2017-05-05T02:58:22.599Z,64.62
2017-05-05T02:59:03.072Z,64.72
2017-05-05T02:59:43.555Z,64.34
2017-05-05T03:00:24.044Z,64.53
2017-05-05T03:01:04.520Z,63.57
2017-05-05T03:01:45.005Z,63.96
2017-05-05T03:02:25.505Z,63.96
2017-05-05T03:03:05.968Z,63.57
2017-05-05T03:03:46.446Z,63.96
2017-05-05T03:04:26.929Z,63.86
2017-05-05T03:05:07.410Z,63.48
2017-05-05T03:05:47.914Z,63.2
2017-05-05T03:06:28.396Z,63.57
2017-05-05T03:07:08.870Z,63.48
2017-05-05T03:07:49.359Z,63.1
2017-05-05T03:08:29.841Z,63.01
2017-05-05T03:09:10.332Z,62.91
2017-05-05T03:09:50.825Z,63.01
2017-05-05T03:10:31.283Z,63.01
2017-05-05T03:11:11.789Z,63.01
2017-05-05T03:11:52.283Z,63.1
2017-05-05T03:12:32.766Z,63.01
2017-05-05T03:13:13.228Z,63.01
2017-05-05T03:13:53.712Z,63.2
2017-05-05T03:14:34.217Z,63.29
2017-05-05T03:15:14.691Z,63.2
2017-05-05T03:15:55.147Z,63.1
2017-05-05T03:16:35.621Z,63.01
2017-05-05T03:17:16.138Z,63.29
2017-05-05T03:17:56.621Z,63.1
2017-05-05T03:18:37.138Z,63.29
2017-05-05T03:19:17.603Z,63.01
2017-05-05T03:19:58.100Z,63.57
2017-05-05T03:20:38.618Z,63.67
2017-05-05T03:21:19.131Z,63.39
2017-05-05T03:21:59.595Z,63.48
2017-05-05T03:22:40.075Z,63.48
2017-05-05T03:23:20.589Z,63.29
2017-05-05T03:24:01.069Z,63.57
2017-05-05T03:24:41.553Z,63.86
2017-05-05T03:25:22.027Z,63.96
2017-05-05T03:26:02.578Z,63.86
2017-05-05T03:26:43.036Z,63.96
2017-05-05T03:27:23.524Z,63.76
2017-05-05T03:28:03.974Z,63.76
2017-05-05T03:28:44.472Z,64.24
2017-05-05T03:29:24.991Z,64.34
2017-05-05T03:30:05.440Z,64.34
2017-05-05T03:30:45.907Z,64.43
2017-05-05T03:31:26.401Z,64.34
2017-05-05T03:32:06.931Z,64.24
2017-05-05T03:32:47.421Z,64.62
2017-05-05T03:33:27.900Z,64.81
2017-05-05T03:34:08.396Z,64.34
2017-05-05T03:34:48.876Z,64.81
2017-05-05T03:35:29.371Z,64.43
2017-05-05T03:36:09.846Z,64.81
2017-05-05T03:36:50.345Z,64.9
2017-05-05T03:37:30.817Z,65
2017-05-05T03:38:11.311Z,64.81
2017-05-05T03:38:51.801Z,64.43
2017-05-05T03:39:32.296Z,65
2017-05-05T03:40:12.791Z,65.19
2017-05-05T03:40:53.301Z,65.19
2017-05-05T03:41:33.796Z,65.19
2017-05-05T03:42:14.284Z,65.1
2017-05-05T03:42:54.774Z,65
2017-05-05T03:43:35.255Z,65
2017-05-05T03:44:15.717Z,65
2017-05-05T03:44:56.183Z,65.38
2017-05-05T03:45:36.703Z,65.38
2017-05-05T03:46:17.210Z,65.19
2017-05-05T03:46:57.697Z,65
2017-05-05T03:47:38.206Z,64.72
2017-05-05T03:48:18.673Z,64.62
2017-05-05T03:48:59.150Z,64.53
2017-05-05T03:49:39.626Z,64.62
2017-05-05T03:50:20.124Z,65
2017-05-05T03:51:00.639Z,64.9
2017-05-05T03:51:41.113Z,64.72
2017-05-05T03:52:21.611Z,64.72
2017-05-05T03:53:02.144Z,64.53
2017-05-05T03:53:42.581Z,64.72
2017-05-05T03:54:23.070Z,64.9
2017-05-05T03:55:03.603Z,64.9
2017-05-05T03:55:44.082Z,64.81
2017-05-05T03:56:24.576Z,64.9
2017-05-05T03:57:05.093Z,64.34
2017-05-05T03:57:45.580Z,65.1
2017-05-05T03:58:26.121Z,64.34
2017-05-05T03:59:06.553Z,64.15
2017-05-05T03:59:47.027Z,64.43
2017-05-05T04:00:27.550Z,64.62
2017-05-05T04:01:08.026Z,64.43
2017-05-05T04:01:48.563Z,64.34
2017-05-05T04:02:29.067Z,64.43
2017-05-05T04:03:09.531Z,64.43
2017-05-05T04:03:50.029Z,64.81
2017-05-05T04:04:30.561Z,64.72
2017-05-05T04:05:11.064Z,64.43
2017-05-05T04:05:51.540Z,64.53
2017-05-05T04:06:32.023Z,64.24
2017-05-05T04:07:12.533Z,64.43
2017-05-05T04:07:53.044Z,64.34
2017-05-05T04:08:33.545Z,64.72
2017-05-05T04:09:14.046Z,64.53
2017-05-05T04:09:54.493Z,64.81
2017-05-05T04:10:35.042Z,64.81
2017-05-05T04:11:15.513Z,65
2017-05-05T04:11:55.976Z,64.81
2017-05-05T04:12:36.504Z,64.62
2017-05-05T04:13:16.996Z,64.53
2017-05-05T04:13:57.487Z,64.72
2017-05-05T04:14:38.044Z,64.9
2017-05-05T04:15:18.573Z,64.81
2017-05-05T04:15:59.073Z,64.72
2017-05-05T04:16:39.669Z,64.72
2017-05-05T04:17:20.240Z,64.81
2017-05-05T04:18:00.766Z,64.9
2017-05-05T04:18:41.234Z,65
2017-05-05T04:19:21.819Z,65.29
2017-05-05T04:20:02.313Z,65.48
2017-05-05T04:20:42.847Z,65.67
2017-05-05T04:21:23.396Z,66.24
2017-05-05T04:22:03.933Z,66.05
2017-05-05T04:22:44.465Z,66.81
2017-05-05T04:23:24.984Z,66.91
2017-05-05T04:24:05.514Z,67.29
2017-05-05T04:24:46.075Z,67.38
2017-05-05T04:25:27.499Z,67.47
2017-05-05T04:26:08.009Z,67.38
2017-05-05T04:26:48.573Z,67.47
2017-05-05T04:27:29.032Z,67.67
2017-05-05T04:28:09.579Z,67.57
2017-05-05T04:28:51.193Z,67.47
2017-05-05T04:29:31.734Z,67.76
2017-05-05T04:30:12.202Z,67.76
2017-05-05T04:30:52.681Z,67.57
2017-05-05T04:31:33.220Z,67.47
2017-05-05T04:32:13.730Z,67.38
2017-05-05T04:32:54.336Z,67.67
2017-05-05T04:33:34.847Z,67.57
2017-05-05T04:34:15.310Z,67.95
2017-05-05T04:34:55.794Z,67.95
2017-05-05T04:35:36.318Z,67.86
2017-05-05T04:36:16.802Z,67.51
2017-05-05T04:36:57.290Z,67.32
2017-05-05T04:37:37.779Z,67.7
2017-05-05T04:38:18.282Z,67.51
2017-05-05T04:38:58.783Z,67.41
2017-05-05T04:39:39.291Z,67.13
2017-05-05T04:40:19.789Z,67.22
2017-05-05T04:41:00.293Z,67.13
2017-05-05T04:41:40.797Z,67.03
2017-05-05T04:42:21.263Z,66.94
2017-05-05T04:43:01.765Z,66.75
2017-05-05T04:43:42.262Z,66.75
2017-05-05T04:44:22.783Z,66.18
2017-05-05T04:45:03.288Z,66.27
2017-05-05T04:45:43.741Z,66.37
2017-05-05T04:46:24.252Z,65.89
2017-05-05T04:47:04.753Z,65.89
2017-05-05T04:47:45.307Z,66.18
2017-05-05T04:48:25.777Z,65.8
2017-05-05T04:49:06.292Z,65.51
2017-05-05T04:49:46.797Z,65.8
2017-05-05T04:50:27.301Z,65.32
2017-05-05T04:51:07.772Z,65.42
2017-05-05T04:51:48.279Z,65.13
2017-05-05T04:52:28.757Z,65.32
2017-05-05T04:53:10.792Z,65.23
2017-05-05T04:53:51.312Z,65.23
2017-05-05T04:54:31.805Z,65.61
2017-05-05T04:55:12.281Z,64.65
2017-05-05T04:55:54.191Z,64.84
2017-05-05T04:56:35.492Z,64.75
2017-05-05T04:57:15.980Z,64.84
2017-05-05T04:57:56.513Z,64.75
2017-05-05T04:58:36.974Z,64.47
2017-05-05T04:59:17.506Z,64.75
2017-05-05T04:59:58.032Z,64.47
2017-05-05T05:00:38.526Z,64.47
2017-05-05T05:01:19.032Z,64.65
2017-05-05T05:01:59.557Z,64.65
2017-05-05T05:02:40.065Z,64.75
2017-05-05T05:03:20.555Z,64.75
2017-05-05T05:04:01.048Z,64.75
2017-05-05T05:04:41.534Z,64.56
2017-05-05T05:05:22.069Z,65.23
2017-05-05T05:06:02.682Z,65.03
2017-05-05T05:06:43.154Z,65.03
2017-05-05T05:07:23.696Z,65.13
2017-05-05T05:08:04.253Z,65.23
2017-05-05T05:08:44.874Z,65.51
2017-05-05T05:09:25.384Z,65.42
2017-05-05T05:10:05.891Z,65.32
2017-05-05T05:10:46.358Z,65.03
2017-05-05T05:11:26.837Z,65.13
2017-05-05T05:12:07.323Z,65.42
2017-05-05T05:12:47.811Z,65.23
2017-05-05T05:15:07.484Z,65.13
2017-05-05T05:15:47.839Z,65
2017-05-05T05:16:28.393Z,65.51
2017-05-05T05:17:08.915Z,65.7
2017-05-05T05:17:49.392Z,65.89
2017-05-05T05:18:29.866Z,65.61
2017-05-05T05:19:10.342Z,65.8
2017-05-05T05:19:50.839Z,66.08
2017-05-05T05:20:31.317Z,65.8
2017-05-05T05:21:11.825Z,65.99
2017-05-05T05:21:52.344Z,66.05
2017-05-05T05:22:32.846Z,65.99
2017-05-05T05:23:13.344Z,65.99
2017-05-05T05:23:53.864Z,66.18
2017-05-05T05:24:34.314Z,65.99
2017-05-05T05:25:14.812Z,66.18
2017-05-05T05:25:55.294Z,65.95
2017-05-05T05:26:35.790Z,65.51
2017-05-05T05:27:16.294Z,65.61
2017-05-05T05:27:56.842Z,65.7
2017-05-05T05:28:37.401Z,65.67
2017-05-05T05:29:17.897Z,65.77
2017-05-05T05:29:58.377Z,65.89
2017-05-05T05:30:38.876Z,65.61
2017-05-05T05:31:19.434Z,65.61
2017-05-05T05:31:59.893Z,65.8
2017-05-05T05:32:40.349Z,65.7
2017-05-05T05:33:20.839Z,65.61
2017-05-05T05:34:01.351Z,65.61
2017-05-05T05:34:41.814Z,65.7
2017-05-05T05:35:22.298Z,65.51
2017-05-05T05:36:02.816Z,65.8
2017-05-05T05:36:43.302Z,65.61
2017-05-05T05:37:23.837Z,65.23
2017-05-05T05:38:04.313Z,65.23
2017-05-05T05:38:44.966Z,65.32
2017-05-05T05:39:25.484Z,65.03
2017-05-05T05:40:05.965Z,65.23
2017-05-05T05:40:46.444Z,65.32
2017-05-05T05:41:26.927Z,65.13
2017-05-05T05:42:08.108Z,65.23
2017-05-05T05:42:48.658Z,65.23
2017-05-05T05:43:29.200Z,65.23
2017-05-05T05:44:09.740Z,65.03
2017-05-05T05:44:50.199Z,65.13
2017-05-05T05:45:30.739Z,65.23
2017-05-05T05:46:11.203Z,65.23
2017-05-05T05:46:51.693Z,64.94
2017-05-05T05:47:32.194Z,65.13
2017-05-05T05:48:12.660Z,65.03
2017-05-05T05:48:53.167Z,65.8
2017-05-05T05:49:33.746Z,65.42
2017-05-05T05:50:14.198Z,65.51
2017-05-05T05:50:54.687Z,65.7
2017-05-05T05:51:35.232Z,65.7
2017-05-05T05:52:15.700Z,65.99
2017-05-05T05:52:56.198Z,66.08
2017-05-05T05:53:36.710Z,66.18
2017-05-05T05:54:17.212Z,66.08
2017-05-05T05:54:57.712Z,66.18
2017-05-05T05:55:38.250Z,66.37
2017-05-05T05:56:18.723Z,66.46
2017-05-05T05:56:59.291Z,66.27
2017-05-05T05:57:39.789Z,66.85
2017-05-05T05:58:20.360Z,66.4
2017-05-05T05:59:00.870Z,65.89
2017-05-05T05:59:41.371Z,65.99
2017-05-05T06:00:21.925Z,65.92
2017-05-05T06:01:02.466Z,66.21
2017-05-05T06:01:42.964Z,66.21
2017-05-05T06:02:23.442Z,66.02
2017-05-05T06:03:03.936Z,66.02
2017-05-05T06:03:44.411Z,65.83
2017-05-05T06:04:24.921Z,66.31
2017-05-05T06:05:05.444Z,66.31
2017-05-05T06:05:45.946Z,65.83
2017-05-05T06:06:26.406Z,65.83
2017-05-05T06:07:06.925Z,65.55
2017-05-05T06:07:47.407Z,65.45
2017-05-05T06:08:27.932Z,65.07
2017-05-05T06:09:08.402Z,64.69
2017-05-05T06:09:48.898Z,64.5
2017-05-05T06:10:29.425Z,64.02
2017-05-05T06:11:10.304Z,64.12
2017-05-05T06:11:50.775Z,64.21
2017-05-05T06:12:31.343Z,64.15
2017-05-05T06:13:11.825Z,63.86
2017-05-05T06:13:52.322Z,64.24
2017-05-05T06:14:32.854Z,63.86
2017-05-05T06:15:13.335Z,63.57
2017-05-05T06:15:53.865Z,63.48
2017-05-05T06:16:34.431Z,63.86
2017-05-05T06:17:14.894Z,63.96
2017-05-05T06:17:55.341Z,64.05
2017-05-05T06:18:35.867Z,63.57
2017-05-05T06:19:16.349Z,63.76
2017-05-05T06:19:56.802Z,63.29
2017-05-05T06:20:37.314Z,63.29
2017-05-05T06:21:17.828Z,63.29
2017-05-05T06:21:58.357Z,63.1
2017-05-05T06:22:38.912Z,63.1
2017-05-05T06:23:19.406Z,62.91
2017-05-05T06:23:59.966Z,63.1
2017-05-05T06:24:40.537Z,63.51
2017-05-05T06:25:21.067Z,62.91
2017-05-05T06:26:01.606Z,62.56
2017-05-05T06:26:42.119Z,62.56
2017-05-05T06:27:22.593Z,62.52
2017-05-05T06:28:03.109Z,62.46
2017-05-05T06:28:43.589Z,62.56
2017-05-05T06:29:24.064Z,62.46
2017-05-05T06:30:04.565Z,62.56
2017-05-05T06:30:45.067Z,62.65
2017-05-05T06:31:25.806Z,62.18
2017-05-05T06:32:06.334Z,61.7
2017-05-05T06:32:46.996Z,62.08
2017-05-05T06:33:27.482Z,62.08
2017-05-05T06:34:08.540Z,62.37
2017-05-05T06:34:48.993Z,62.18
2017-05-05T06:35:29.435Z,61.8
2017-05-05T06:36:09.958Z,61.41
2017-05-05T06:36:50.404Z,62.08
2017-05-05T06:37:30.905Z,61.32
2017-05-05T06:38:11.480Z,61.32
2017-05-05T06:38:51.954Z,61.41
2017-05-05T06:39:32.449Z,61.51
2017-05-05T06:40:13.955Z,61.51
2017-05-05T06:40:54.602Z,61.7
2017-05-05T06:41:35.079Z,61.32
2017-05-05T06:42:15.609Z,61.8
2017-05-05T06:42:56.127Z,61.7
2017-05-05T06:43:36.855Z,62.08
2017-05-05T06:44:17.284Z,62.08
2017-05-05T06:44:57.815Z,61.89
2017-05-05T06:45:38.298Z,61.99
2017-05-05T06:46:18.826Z,61.89
2017-05-05T06:46:59.292Z,61.41
2017-05-05T06:47:39.787Z,61.22
2017-05-05T06:48:20.297Z,61.13
2017-05-05T06:49:00.810Z,61.13
2017-05-05T06:49:41.295Z,60.94
2017-05-05T06:50:21.856Z,61.13
2017-05-05T06:51:02.360Z,61.04
2017-05-05T06:51:42.839Z,61.13
2017-05-05T06:52:24.231Z,60.46
2017-05-05T06:53:04.714Z,60.84
2017-05-05T06:53:45.272Z,60.75
2017-05-05T06:54:25.812Z,60.65
2017-05-05T06:55:06.548Z,60.94
2017-05-05T06:55:47.203Z,60.55
2017-05-05T06:56:27.707Z,60.46
2017-05-05T06:57:08.263Z,60.65
2017-05-05T06:57:48.802Z,60.46
2017-05-05T06:58:29.355Z,60.36
2017-05-05T06:59:09.885Z,60.65
2017-05-05T06:59:50.355Z,60.65
2017-05-05T07:00:30.872Z,61.13
2017-05-05T07:01:11.355Z,61.13
2017-05-05T07:03:13.181Z,61.22
2017-05-05T07:04:01.864Z,61.04
2017-05-05T07:04:49.250Z,61.04
2017-05-05T07:05:31.996Z,61.13
2017-05-05T07:06:12.419Z,61.22
2017-05-05T07:06:53.343Z,61.22
2017-05-05T07:07:33.819Z,61.04
2017-05-05T07:08:14.365Z,61.22
2017-05-05T07:08:54.920Z,61.22
2017-05-05T07:09:35.362Z,61.13
2017-05-05T07:10:15.857Z,61.04
2017-05-05T07:10:56.342Z,61.04
2017-05-05T07:11:36.814Z,60.94
2017-05-05T07:12:17.461Z,61.04
2017-05-05T07:12:58.042Z,61.22
2017-05-05T07:13:38.526Z,61.13
2017-05-05T07:14:19.039Z,61.13
2017-05-05T07:14:59.498Z,61.32
2017-05-05T07:15:40.008Z,61.04
2017-05-05T07:16:20.470Z,60.84
2017-05-05T07:17:00.973Z,60.84
2017-05-05T07:17:41.463Z,60.84
2017-05-05T07:18:21.947Z,61.13
2017-05-05T07:19:02.444Z,61.13
2017-05-05T07:19:45.334Z,61.13
2017-05-05T07:20:24.845Z,61.13
2017-05-05T07:21:09.433Z,60.78
2017-05-05T07:21:51.277Z,60.58
2017-05-05T07:22:31.768Z,60.02
2017-05-05T07:23:12.271Z,59.82
2017-05-05T07:23:52.796Z,59.53
2017-05-05T07:24:33.314Z,59.82
2017-05-05T07:25:13.759Z,59.34
2017-05-05T07:25:54.276Z,58.97
2017-05-05T07:26:36.349Z,59.28
2017-05-05T07:27:23.688Z,59.19
2017-05-05T07:28:09.230Z,58.61
2017-05-05T07:28:49.502Z,58.7
2017-05-05T07:29:30.067Z,58.42
2017-05-05T07:30:10.492Z,58.14
2017-05-05T07:30:51.012Z,57.94
2017-05-05T07:31:31.488Z,57.56
2017-05-05T07:32:12.034Z,57.56
2017-05-05T07:32:52.447Z,57.94
2017-05-05T07:33:32.952Z,57.94
2017-05-05T07:34:13.700Z,57.28
2017-05-05T07:34:54.200Z,57.09
2017-05-05T07:35:34.684Z,57.46
2017-05-05T07:36:15.240Z,57.5
2017-05-05T07:36:56.310Z,57.21
2017-05-05T07:37:45.199Z,56.73
2017-05-05T07:38:34.750Z,57.02
2017-05-05T07:39:24.353Z,57.11
2017-05-05T07:41:59.463Z,56.45
2017-05-05T07:42:46.488Z,56.18
2017-05-05T07:43:34.788Z,56.28
2017-05-05T07:44:23.428Z,55.71
2017-05-05T07:45:12.296Z,55.61
2017-05-05T07:45:56.955Z,55.52
2017-05-05T07:46:39.445Z,55.35
2017-05-05T07:47:19.884Z,55.23
2017-05-05T07:48:00.514Z,55.13
2017-05-05T07:48:40.982Z,55.32
2017-05-05T07:49:21.466Z,54.97
2017-05-05T07:50:01.907Z,55.26
2017-05-05T07:50:42.432Z,54.59
2017-05-05T07:51:23.014Z,54.68
2017-05-05T07:52:03.505Z,54.75
2017-05-05T07:52:43.986Z,54.59
2017-05-05T07:53:24.478Z,54.75
2017-05-05T07:54:05.038Z,54.75
2017-05-05T07:54:45.500Z,54.27
2017-05-05T07:55:25.985Z,54.78
2017-05-05T07:56:06.554Z,54.3
2017-05-05T07:56:53.774Z,53.92
2017-05-05T07:57:39.840Z,53.73
2017-05-05T07:58:22.747Z,54.02
2017-05-05T07:59:03.249Z,53.99
2017-05-05T07:59:43.713Z,54.11
2017-05-05T08:00:24.171Z,53.92
2017-05-05T08:01:04.803Z,54.11
2017-05-05T08:01:45.294Z,53.92
2017-05-05T08:02:25.773Z,54.11
2017-05-05T08:03:06.230Z,54.11
2017-05-05T08:03:47.025Z,54.39
2017-05-05T08:04:27.560Z,54.49
2017-05-05T08:05:08.078Z,54.11
2017-05-05T08:05:48.607Z,54.3
2017-05-05T08:06:29.056Z,53.63
2017-05-05T08:07:09.572Z,54.02
2017-05-05T08:07:50.033Z,54.02
2017-05-05T08:08:30.521Z,53.92
2017-05-05T08:09:10.933Z,54.02
2017-05-05T08:09:52.686Z,54.21
2017-05-05T08:10:33.210Z,53.63
2017-05-05T08:11:13.718Z,53.44
2017-05-05T08:11:55.400Z,53.34
2017-05-05T08:12:35.323Z,53.82
2017-05-05T08:13:15.827Z,53.73
2017-05-05T08:13:58.197Z,53.92
2017-05-05T08:14:38.419Z,53.53
2017-05-05T08:15:19.017Z,53.53
2017-05-05T08:16:00.244Z,53.82
2017-05-05T08:16:40.704Z,53.44
2017-05-05T08:17:21.197Z,53.53
2017-05-05T08:18:02.656Z,54.02
2017-05-05T08:18:43.146Z,54.02
2017-05-05T08:19:23.665Z,53.82
2017-05-05T08:20:04.243Z,53.92
2017-05-05T08:20:47.260Z,54.11
2017-05-05T08:21:27.961Z,54.11
2017-05-05T08:22:08.477Z,54.39
2017-05-05T08:22:48.973Z,54.11
2017-05-05T08:23:30.157Z,54.02
2017-05-05T08:24:10.621Z,53.63
2017-05-05T08:24:51.092Z,54.39
2017-05-05T08:25:31.609Z,54.49
2017-05-05T08:26:12.090Z,54.11
2017-05-05T08:26:52.609Z,54.78
2017-05-05T08:27:33.631Z,54.78
2017-05-05T08:28:14.245Z,54.88
2017-05-05T08:28:56.244Z,54.11
2017-05-05T08:29:36.022Z,54.11
2017-05-05T08:30:16.625Z,54.3
2017-05-05T08:30:57.069Z,54.39
2017-05-05T08:31:37.564Z,54.11
2017-05-05T08:32:18.142Z,54.21
2017-05-05T08:32:58.588Z,53.73
2017-05-05T08:33:39.391Z,54.02
2017-05-05T08:34:20.397Z,54.23
2017-05-05T08:35:00.902Z,54.14
2017-05-05T08:35:41.399Z,53.85
2017-05-05T08:36:21.918Z,53.47
2017-05-05T08:37:02.731Z,53.56
2017-05-05T08:37:43.274Z,53.94
2017-05-05T08:38:23.735Z,53.75
2017-05-05T08:39:04.269Z,53.66
2017-05-05T08:39:45.829Z,53.66
2017-05-05T08:40:27.987Z,53.94
2017-05-05T08:41:08.488Z,53.85
2017-05-05T08:41:48.970Z,53.85
2017-05-05T08:42:29.477Z,53.66
2017-05-05T08:43:10.009Z,53.11
2017-05-05T08:43:50.559Z,53.2
2017-05-05T08:44:31.043Z,53.02
2017-05-05T08:45:18.586Z,53.4
2017-05-05T08:46:00.447Z,53.3
2017-05-05T08:46:40.998Z,53.2
2017-05-05T08:47:21.370Z,52.83
2017-05-05T08:48:01.895Z,52.95
2017-05-05T08:48:42.389Z,52.75
2017-05-05T08:49:22.829Z,52.66
2017-05-05T08:50:03.973Z,52.47
2017-05-05T08:50:44.302Z,52.28
2017-05-05T08:51:24.810Z,51.99
2017-05-05T08:52:05.918Z,52.09
2017-05-05T08:52:46.424Z,51.99
2017-05-05T08:53:27.003Z,51.61
2017-05-05T08:54:07.488Z,51.63
2017-05-05T08:54:48.011Z,51.34
2017-05-05T08:55:28.694Z,51.25
2017-05-05T08:56:09.205Z,51.42